Time;durP1;ratioP1;P1;durP2;ratioP2;P2;SDS_P1;SDS_P2;PMS_P1;PMS_P2;Temp;Humidity;BMP_temperature;BMP_pressure;BME280_temperature;BME280_humidity;BME280_pressure;Samples;Min_cycle;Max_cycle;Signal;HPM_P1;HPM_P2
2022/05/13 00:03:56;;;;;;;1.83;0.50;;;;;;;21.51;38.67;101830.22;16137998;19;130543;-49
2022/05/13 00:09:18;;;;;;;3.80;0.77;;;;;;;21.49;38.74;101822.13;16141999;19;129030;-48
2022/05/13 00:14:41;;;;;;;2.17;0.65;;;;;;;21.49;38.67;101826.84;16141597;19;129816;-47
2022/05/13 00:20:05;;;;;;;2.35;0.70;;;;;;;21.46;38.36;101825.34;16141898;19;130859;-48
2022/05/13 00:25:31;;;;;;;1.10;0.60;;;;;;;21.47;38.28;101823.44;16137589;19;130387;-50
2022/05/13 00:30:52;;;;;;;1.55;0.60;;;;;;;21.45;38.49;101826.44;16140033;19;130189;-49
2022/05/13 00:36:14;;;;;;;4.78;0.70;;;;;;;21.43;38.57;101827.78;16144425;19;129634;-50
2022/05/13 00:41:36;;;;;;;1.20;0.60;;;;;;;21.42;38.08;101821.34;16144051;19;129523;-48
2022/05/13 00:46:58;;;;;;;0.88;0.43;;;;;;;21.41;38.18;101821.63;16131541;19;131023;-49
2022/05/13 00:52:20;;;;;;;1.95;0.60;;;;;;;21.39;38.05;101821.88;16137094;19;130453;-49
2022/05/13 00:57:42;;;;;;;2.33;0.60;;;;;;;21.37;38.22;101815.69;16137022;19;130090;-45
2022/05/13 01:03:06;;;;;;;1.75;0.55;;;;;;;21.37;38.14;101824.03;16131937;19;130684;-41
2022/05/13 01:08:32;;;;;;;1.75;0.40;;;;;;;21.36;38.19;101825.97;16135579;19;130342;-42
2022/05/13 01:14:03;;;;;;;1.10;0.40;;;;;;;21.36;37.88;101816.78;16137693;19;130104;-40
2022/05/13 01:19:25;;;;;;;1.77;0.30;;;;;;;21.34;37.85;101819.81;16125810;19;130556;-43
2022/05/13 01:24:47;;;;;;;2.63;0.47;;;;;;;21.33;38.08;101818.13;16130550;19;129989;-45
2022/05/13 01:30:11;;;;;;;2.17;0.50;;;;;;;21.32;38.07;101815.56;16134772;19;130299;-39
2022/05/13 01:35:36;;;;;;;4.23;0.40;;;;;;;21.30;38.23;101821.38;16133783;19;129898;-44
2022/05/13 01:40:58;;;;;;;1.40;0.38;;;;;;;21.30;38.04;101823.31;16127243;19;130472;-43
2022/05/13 01:46:22;;;;;;;1.50;0.30;;;;;;;21.28;38.00;101828.28;16128851;19;130787;-40
2022/05/13 01:51:43;;;;;;;1.75;0.43;;;;;;;21.28;38.19;101825.50;16132052;19;131072;-41
2022/05/13 01:57:06;;;;;;;1.80;0.40;;;;;;;21.26;38.15;101828.50;16129801;19;130622;-40
2022/05/13 02:02:27;;;;;;;3.22;0.47;;;;;;;21.26;37.87;101822.94;16132971;19;129217;-43
2022/05/13 02:07:49;;;;;;;1.00;0.40;;;;;;;21.26;37.82;101827.69;16130160;19;129715;-40
2022/05/13 02:13:13;;;;;;;1.05;0.47;;;;;;;21.24;37.82;101827.06;16132679;19;130152;-40
2022/05/13 02:18:35;;;;;;;3.67;0.30;;;;;;;21.22;38.08;101832.91;16110733;19;131185;-43
2022/05/13 02:23:57;;;;;;;1.13;0.40;;;;;;;21.21;37.67;101829.25;16125557;19;129577;-43
2022/05/13 02:29:19;;;;;;;2.85;0.57;;;;;;;21.21;37.64;101825.63;16129623;19;130661;-41
2022/05/13 02:34:41;;;;;;;2.75;0.50;;;;;;;21.20;37.99;101827.56;16129507;19;130556;-41
2022/05/13 02:40:03;;;;;;;2.28;0.50;;;;;;;21.18;37.84;101824.16;16128122;19;129942;-41
2022/05/13 02:45:25;;;;;;;2.83;0.30;;;;;;;21.17;37.73;101818.84;16127191;19;131314;-42
2022/05/13 02:50:47;;;;;;;1.30;0.35;;;;;;;21.16;37.55;101815.22;16122992;19;130345;-42
2022/05/13 02:56:10;;;;;;;1.70;0.30;;;;;;;21.16;37.54;101817.16;16124848;19;130392;-40
2022/05/13 03:01:35;;;;;;;1.08;0.28;;;;;;;21.15;37.76;101821.03;16124739;19;130312;-40
2022/05/13 03:06:56;;;;;;;3.60;0.50;;;;;;;21.14;37.75;101824.88;16125229;19;129914;-43
2022/05/13 03:12:18;;;;;;;2.42;0.50;;;;;;;21.13;37.67;101820.41;16127459;19;129831;-40
2022/05/13 03:17:41;;;;;;;2.38;0.40;;;;;;;21.12;37.84;101816.78;16123808;19;130800;-42
2022/05/13 03:23:03;;;;;;;1.15;0.40;;;;;;;21.12;37.53;101821.50;16125694;19;129746;-41
2022/05/13 03:28:26;;;;;;;3.50;0.32;;;;;;;21.10;37.56;101821.75;16128137;19;130162;-44
2022/05/13 03:33:47;;;;;;;1.17;0.40;;;;;;;21.09;37.62;101811.72;16129024;19;129183;-41
2022/05/13 03:39:09;;;;;;;0.88;0.32;;;;;;;21.08;37.77;101818.34;16127591;19;130563;-40
2022/05/13 03:44:31;;;;;;;3.45;0.50;;;;;;;21.07;37.54;101802.75;16143631;19;130344;-40
2022/05/13 03:49:53;;;;;;;1.65;0.40;;;;;;;21.07;37.72;101808.31;16143919;19;130773;-39
2022/05/13 03:55:15;;;;;;;0.70;0.20;;;;;;;21.04;37.57;101806.03;16142686;19;130272;-42
2022/05/13 04:00:37;;;;;;;1.13;0.40;;;;;;;21.03;37.50;101813.53;16141228;19;129641;-43
2022/05/13 04:11:40;;;;;;;1.17;0.30;;;;;;;21.02;37.51;101816.56;16137760;19;129592;-41
2022/05/13 04:17:02;;;;;;;1.00;0.38;;;;;;;21.01;37.48;101818.47;16132526;19;129464;-46
2022/05/13 04:22:27;;;;;;;1.13;0.20;;;;;;;21.00;37.66;101814.00;16132099;19;129899;-40
2022/05/13 04:27:48;;;;;;;0.30;0.20;;;;;;;20.99;37.22;101814.25;16132407;19;131035;-41
2022/05/13 04:33:14;;;;;;;0.50;0.20;;;;;;;20.99;37.26;101823.41;16139451;19;129206;-41
2022/05/13 04:38:36;;;;;;;2.67;0.32;;;;;;;20.98;37.34;101832.03;16136913;19;129183;-40
2022/05/13 04:43:59;;;;;;;2.00;0.45;;;;;;;20.98;37.04;101838.44;16138202;19;130481;-40
2022/05/13 04:49:20;;;;;;;1.63;0.30;;;;;;;20.97;37.17;101841.44;16136433;19;130452;-42
2022/05/13 04:54:47;;;;;;;1.13;0.30;;;;;;;20.96;37.33;101839.75;16135439;19;129892;-39
2022/05/13 05:00:09;;;;;;;1.25;0.22;;;;;;;20.96;37.10;101839.75;16133616;19;130627;-42
2022/05/13 05:05:32;;;;;;;1.38;0.40;;;;;;;20.96;37.43;101842.53;16133175;19;130495;-41
2022/05/13 05:10:54;;;;;;;1.45;0.30;;;;;;;20.95;37.46;101849.19;16138865;19;129023;-39
2022/05/13 05:16:16;;;;;;;1.75;0.40;;;;;;;20.94;37.14;101858.63;16136109;19;129549;-39
2022/05/13 05:21:38;;;;;;;0.73;0.20;;;;;;;20.95;37.21;101865.88;16132589;19;131554;-42
2022/05/13 05:27:00;;;;;;;1.30;0.40;;;;;;;20.98;36.91;101876.53;16129746;19;130331;-46
2022/05/13 05:32:22;;;;;;;1.40;0.28;;;;;;;20.99;37.08;101878.22;16140373;19;130769;-40
2022/05/13 05:37:44;;;;;;;1.15;0.45;;;;;;;21.00;37.08;101896.63;16141788;19;129031;-41
2022/05/13 05:43:14;;;;;;;3.28;0.47;;;;;;;21.01;36.89;101896.38;16139991;19;129505;-40
2022/05/13 05:48:35;;;;;;;1.00;0.30;;;;;;;21.01;37.17;101898.31;16141537;19;129010;-39
2022/05/13 05:59:37;;;;;;;4.40;0.60;;;;;;;20.98;36.68;101915.47;16125827;19;130347;-40
2022/05/13 06:04:59;;;;;;;3.38;0.60;;;;;;;21.00;37.15;101924.44;16121872;19;130124;-40
2022/05/13 06:10:22;;;;;;;2.20;0.50;;;;;;;20.99;36.95;101919.97;16136206;19;129779;-40
2022/05/13 06:15:43;;;;;;;8.35;0.60;;;;;;;21.01;36.70;101931.69;16135442;19;128887;-40
2022/05/13 06:21:05;;;;;;;2.35;0.50;;;;;;;21.01;36.94;101938.09;16137883;19;129823;-40
2022/05/13 06:26:28;;;;;;;5.55;0.68;;;;;;;21.02;36.62;101947.31;16132528;19;129970;-44
2022/05/13 06:31:52;;;;;;;3.92;1.00;;;;;;;21.01;36.87;101954.78;16137373;19;129896;-43
2022/05/13 06:37:14;;;;;;;5.05;0.77;;;;;;;21.02;36.79;101950.09;16135168;19;130689;-42
2022/05/13 06:42:36;;;;;;;4.93;0.70;;;;;;;21.06;36.71;101956.84;16132266;19;129062;-41
2022/05/13 06:47:58;;;;;;;3.83;1.00;;;;;;;21.07;36.44;101958.56;16131383;19;129312;-40
2022/05/13 06:53:21;;;;;;;4.47;0.82;;;;;;;21.09;36.52;101961.94;16129654;19;130098;-40
2022/05/13 06:58:43;;;;;;;4.20;0.57;;;;;;;21.10;36.55;101960.03;16132327;19;131461;-44
2022/05/13 07:04:04;;;;;;;2.70;0.60;;;;;;;21.12;36.66;101963.41;16130292;19;129086;-42
2022/05/13 07:09:27;;;;;;;4.45;0.80;;;;;;;21.13;36.79;101968.75;16134844;19;129553;-41
2022/05/13 07:14:49;;;;;;;1.65;0.52;;;;;;;21.16;36.51;101979.41;16138998;19;129107;-41
2022/05/13 07:20:13;;;;;;;2.88;0.57;;;;;;;21.19;36.45;101978.91;16151848;19;129498;-42
2022/05/13 07:25:35;;;;;;;5.00;0.73;;;;;;;21.22;36.69;101977.59;16146070;19;129527;-41
2022/05/13 07:30:57;;;;;;;2.70;0.70;;;;;;;21.26;36.46;101986.31;16148789;19;130561;-41
2022/05/13 07:36:19;;;;;;;1.48;0.50;;;;;;;21.32;36.58;101974.22;16148206;19;128880;-40
2022/05/13 07:41:47;;;;;;;2.90;0.52;;;;;;;21.37;36.33;101974.34;16148212;19;129009;-42
2022/05/13 07:47:10;;;;;;;0.90;0.25;;;;;;;21.41;36.03;101972.81;16141298;19;130476;-42
2022/05/13 07:52:32;;;;;;;1.15;0.40;;;;;;;21.45;36.25;101979.56;16148114;19;128945;-40
2022/05/13 07:57:53;;;;;;;3.33;0.70;;;;;;;21.49;35.96;101986.38;16146078;19;128829;-43
2022/05/13 08:03:16;;;;;;;2.35;0.45;;;;;;;21.52;35.99;101983.13;16147027;19;129529;-41
2022/05/13 08:08:41;;;;;;;2.95;0.50;;;;;;;21.53;35.86;101986.75;16145087;19;130416;-40
2022/05/13 08:14:03;;;;;;;2.28;0.50;;;;;;;21.56;35.90;101979.84;16145260;19;129959;-40
2022/05/13 08:19:25;;;;;;;1.20;0.30;;;;;;;21.59;35.99;101982.16;16140059;19;129839;-41
2022/05/13 08:24:46;;;;;;;1.65;0.50;;;;;;;21.61;36.15;101988.34;16142272;19;129182;-40
2022/05/13 08:30:10;;;;;;;1.20;0.30;;;;;;;21.62;35.78;101992.81;16145963;19;129782;-41
2022/05/13 08:35:32;;;;;;;1.38;0.30;;;;;;;21.63;36.16;101991.72;16148182;19;129186;-47
2022/05/13 08:41:04;;;;;;;1.35;0.47;;;;;;;21.64;36.14;102001.78;16146865;19;129285;-42
2022/05/13 08:46:43;;;;;;;1.45;0.30;;;;;;;21.62;35.92;101998.38;16143492;19;129833;-40
2022/05/13 08:53:08;;;;;;;1.58;0.30;;;;;;;21.64;35.67;101996.22;16142582;19;129454;-41
2022/05/13 08:58:36;;;;;;;1.33;0.30;;;;;;;21.62;35.98;101998.38;16143706;19;128907;-39
2022/05/13 09:04:25;;;;;;;2.85;0.68;;;;;;;21.65;35.65;101997.91;16144807;19;129503;-44
2022/05/13 09:09:51;;;;;;;1.90;0.30;;;;;;;21.65;35.84;102003.47;16143080;19;130680;-41
2022/05/13 09:15:13;;;;;;;1.05;0.40;;;;;;;21.63;35.74;102008.44;16141953;19;129976;-46
2022/05/13 09:20:43;;;;;;;1.48;0.45;;;;;;;21.64;35.73;101999.00;16143727;19;129453;-43
2022/05/13 09:26:31;;;;;;;1.67;0.30;;;;;;;21.64;35.91;102013.75;16140039;19;129690;-42
2022/05/13 09:32:02;;;;;;;2.15;0.50;;;;;;;21.63;35.60;102009.28;16135383;19;131666;-40
2022/05/13 09:37:26;;;;;;;1.10;0.32;;;;;;;21.62;35.72;102013.16;16138809;19;129143;-41
2022/05/13 09:42:53;;;;;;;2.80;0.30;;;;;;;21.60;35.59;102008.91;16142608;19;130115;-41
2022/05/13 09:48:20;;;;;;;2.05;0.57;;;;;;;21.58;35.99;102014.72;16134658;19;128877;-40
2022/05/13 09:53:42;;;;;;;1.48;0.30;;;;;;;21.59;36.03;102004.44;16139697;19;129072;-42
2022/05/13 09:59:12;;;;;;;2.00;0.50;;;;;;;21.57;35.53;102014.94;16138610;19;128952;-45
2022/05/13 10:04:34;;;;;;;2.15;0.28;;;;;;;21.57;35.98;102020.53;16138545;19;129508;-44
2022/05/13 10:15:42;;;;;;;5.47;0.95;;;;;;;21.58;35.43;102030.56;16136116;19;128977;-44
2022/05/13 10:21:15;;;;;;;7.45;1.02;;;;;;;21.59;35.16;102033.13;16140498;19;129954;-41
2022/05/13 10:26:41;;;;;;;4.05;0.63;;;;;;;21.57;35.64;102034.44;16131182;19;131344;-42
2022/05/13 10:32:12;;;;;;;8.85;0.88;;;;;;;21.58;35.06;102030.56;16135785;19;129445;-45
2022/05/13 10:37:56;;;;;;;6.30;0.80;;;;;;;21.58;35.33;102025.00;16138633;19;129289;-41
2022/05/13 10:43:26;;;;;;;6.82;1.00;;;;;;;21.57;34.77;102028.88;16135320;19;129200;-44
2022/05/13 10:48:51;;;;;;;9.05;1.02;;;;;;;21.58;35.13;102025.00;16137218;19;129605;-43
2022/05/13 10:54:17;;;;;;;5.47;0.93;;;;;;;21.60;34.70;102028.41;16154119;19;129177;-44
2022/05/13 10:59:42;;;;;;;6.65;1.00;;;;;;;21.60;34.73;102031.19;16153775;19;129035;-40
2022/05/13 11:05:31;;;;;;;14.75;1.05;;;;;;;21.61;34.71;102028.16;16153329;19;129562;-43
2022/05/13 11:11:05;;;;;;;4.72;0.85;;;;;;;21.61;34.52;102027.31;16153460;19;129214;-40
2022/05/13 11:16:57;;;;;;;5.05;1.13;;;;;;;21.62;34.49;102029.00;16150680;19;129057;-41
2022/05/13 11:22:28;;;;;;;2.30;0.90;;;;;;;21.63;34.31;102025.16;16152388;19;129579;-40
2022/05/13 11:28:17;;;;;;;5.82;0.82;;;;;;;21.63;34.13;102020.41;16147012;19;129390;-41
2022/05/13 11:34:07;;;;;;;4.80;0.80;;;;;;;21.62;34.04;102013.16;16151247;19;129323;-43
2022/05/13 11:39:58;;;;;;;5.25;0.90;;;;;;;21.67;34.08;102015.19;16150589;19;129582;-43
2022/05/13 11:45:49;;;;;;;3.75;0.65;;;;;;;21.67;34.26;102023.56;16147913;19;129550;-42
2022/05/13 11:51:31;;;;;;;2.55;0.70;;;;;;;21.67;34.22;102035.56;16145530;19;129798;-44
2022/05/13 11:57:18;;;;;;;3.97;0.90;;;;;;;21.67;33.99;102034.69;16147789;19;129462;-42
2022/05/13 12:02:51;;;;;;;4.85;0.93;;;;;;;21.67;34.00;102027.22;16147244;19;128861;-41
2022/05/13 12:08:31;;;;;;;5.63;0.90;;;;;;;21.67;34.14;102027.22;16145809;19;129407;-43
2022/05/13 12:14:30;;;;;;;3.08;0.68;;;;;;;21.67;34.08;102034.69;16147713;19;130401;-40
2022/05/13 12:20:13;;;;;;;3.35;0.77;;;;;;;21.68;34.14;102022.47;16148838;19;129435;-41
2022/05/13 12:25:34;;;;;;;2.38;0.70;;;;;;;21.69;34.24;102034.47;16146194;19;129405;-41
2022/05/13 12:30:57;;;;;;;3.72;0.88;;;;;;;21.69;34.20;102026.97;16147479;19;128910;-43
2022/05/13 12:42:11;;;;;;;4.93;0.85;;;;;;;21.71;33.77;102012.81;16142168;19;129465;-41
2022/05/13 12:48:08;;;;;;;2.83;0.68;;;;;;;21.73;33.99;102011.47;16146644;19;129658;-42
2022/05/13 12:53:30;;;;;;;3.17;0.85;;;;;;;21.71;33.65;102008.06;16146881;19;130930;-45
2022/05/13 12:59:11;;;;;;;4.30;0.82;;;;;;;21.72;34.04;102012.56;16146245;19;130058;-46
2022/05/13 13:04:41;;;;;;;8.45;1.02;;;;;;;21.74;33.84;102006.72;16150088;19;129435;-43
2022/05/13 13:10:04;;;;;;;2.05;0.80;;;;;;;21.75;34.16;102003.72;16144559;19;129621;-43
2022/05/13 13:15:35;;;;;;;2.55;0.82;;;;;;;21.77;34.16;102000.69;16143015;19;128897;-41
2022/05/13 13:20:59;;;;;;;4.85;1.15;;;;;;;21.75;34.07;101998.16;16146396;19;129553;-44
2022/05/13 13:26:21;;;;;;;4.27;0.90;;;;;;;21.75;33.77;101987.00;16143675;19;129711;-45
2022/05/13 13:31:44;;;;;;;4.13;1.00;;;;;;;21.75;34.01;101992.59;16144607;19;129100;-46
2022/05/13 13:37:10;;;;;;;3.10;0.80;;;;;;;21.77;34.12;101983.97;16142186;19;131773;-46
2022/05/13 13:42:47;;;;;;;1.77;0.50;;;;;;;21.77;33.96;101983.97;16143410;19;129618;-51
2022/05/13 13:48:16;;;;;;;2.95;0.60;;;;;;;21.76;34.13;101977.56;16141652;19;129160;-44
2022/05/13 13:53:39;;;;;;;2.75;0.77;;;;;;;21.77;33.88;101972.84;16142795;19;128886;-42
2022/05/13 13:59:15;;;;;;;4.00;0.90;;;;;;;21.78;34.28;101972.59;16141415;19;129491;-47
2022/05/13 14:04:47;;;;;;;;;;;;;;;21.74;34.14;101971.38;16144424;19;130086;-41
2022/05/13 14:10:12;;;;;;;1.77;0.60;;;;;;;21.76;34.16;101972.00;16136232;19;129448;-41
2022/05/13 14:15:41;;;;;;;1.40;0.70;;;;;;;21.76;33.88;101971.13;16139734;19;129456;-45
2022/05/13 14:21:30;;;;;;;5.22;0.63;;;;;;;21.76;33.97;101966.44;16141907;19;129741;-44
2022/05/13 14:26:59;;;;;;;2.75;0.65;;;;;;;21.75;34.20;101952.72;16136233;19;129768;-48
2022/05/13 14:32:29;;;;;;;2.13;0.65;;;;;;;21.74;34.34;101960.25;16139779;19;129463;-44
2022/05/13 14:37:54;;;;;;;3.80;0.70;;;;;;;21.75;34.21;101959.16;16136514;19;129342;-44
2022/05/13 14:43:28;;;;;;;2.93;0.60;;;;;;;21.75;34.27;101964.72;16133904;19;129208;-47
2022/05/13 14:48:50;;;;;;;1.77;0.63;;;;;;;21.73;34.31;101961.34;16135290;19;128901;-41
2022/05/13 14:54:13;;;;;;;2.45;0.60;;;;;;;21.73;34.17;101955.75;16138038;19;132252;-41
2022/05/13 14:59:42;;;;;;;2.08;0.63;;;;;;;21.72;34.40;101944.88;16137668;19;129514;-43
2022/05/13 15:05:16;;;;;;;2.20;0.60;;;;;;;21.72;34.49;101942.09;16137664;19;129166;-42
2022/05/13 15:10:43;;;;;;;2.15;0.60;;;;;;;21.71;34.09;101948.75;16132913;19;129259;-43
2022/05/13 15:16:05;;;;;;;1.40;0.40;;;;;;;21.70;34.27;101931.19;16134659;19;129106;-41
2022/05/13 15:21:27;;;;;;;4.93;0.80;;;;;;;21.70;34.50;101925.59;16136638;19;129144;-40
2022/05/13 15:26:50;;;;;;;4.05;0.70;;;;;;;21.70;34.41;101922.00;16134506;19;129424;-43
2022/05/13 15:32:15;;;;;;;3.72;0.60;;;;;;;21.70;34.40;101930.34;16136666;19;129254;-41
2022/05/13 15:37:38;;;;;;;1.58;0.45;;;;;;;21.69;34.35;101923.91;16142577;19;128994;-42
2022/05/13 15:43:00;;;;;;;2.15;0.32;;;;;;;21.69;34.26;101932.25;16150622;19;128972;-41
2022/05/13 15:48:22;;;;;;;2.88;0.60;;;;;;;21.69;34.45;101921.13;16144635;19;129357;-41
2022/05/13 15:53:43;;;;;;;1.23;0.43;;;;;;;21.69;34.41;101926.69;16149037;19;129938;-40
2022/05/13 15:59:06;;;;;;;8.18;0.40;;;;;;;21.70;34.72;101917.25;16144317;19;129637;-41
2022/05/13 16:04:31;;;;;;;3.40;0.65;;;;;;;21.70;34.26;101922.81;16149528;19;129920;-43
2022/05/13 16:09:53;;;;;;;2.92;0.52;;;;;;;21.71;34.37;101915.34;16144855;19;129448;-43
2022/05/13 16:15:19;;;;;;;1.60;0.65;;;;;;;21.70;34.82;101903.31;16145725;19;129847;-40
2022/05/13 16:20:48;;;;;;;1.20;0.52;;;;;;;21.72;34.64;101903.94;16132973;19;130722;-42
2022/05/13 16:26:16;;;;;;;3.77;0.93;;;;;;;21.73;34.42;101910.34;16129443;19;130041;-43
2022/05/13 16:31:38;;;;;;;2.78;0.82;;;;;;;21.74;34.62;101910.13;16127761;19;129337;-43
2022/05/13 16:42:40;;;;;;;1.65;0.70;;;;;;;21.74;34.70;101912.03;16139647;19;130018;-43
2022/05/13 16:48:03;;;;;;;6.38;0.65;;;;;;;21.75;34.85;101913.72;16137798;19;130066;-41
2022/05/13 16:53:25;;;;;;;2.83;0.65;;;;;;;21.75;34.38;101902.59;16145300;19;129288;-40
2022/05/13 16:58:47;;;;;;;5.63;0.77;;;;;;;21.76;34.56;101919.09;16143600;19;130505;-44
2022/05/13 17:04:12;;;;;;;3.08;0.70;;;;;;;21.75;34.45;101906.25;16145388;19;129405;-41
2022/05/13 17:20:55;;;;;;;4.10;0.65;;;;;;;21.75;34.07;101919.31;16142551;19;128992;-41
2022/05/13 17:26:17;;;;;;;4.15;0.82;;;;;;;21.75;33.87;101930.44;16138417;19;129603;-40
2022/05/13 17:31:39;;;;;;;3.75;0.57;;;;;;;21.74;34.24;101925.97;16142219;19;129041;-40
2022/05/13 17:37:06;;;;;;;2.10;0.80;;;;;;;21.73;34.38;101925.13;16141167;19;129989;-40
2022/05/13 17:42:28;;;;;;;3.10;0.88;;;;;;;21.71;34.16;101926.47;16138071;19;130804;-40
2022/05/13 17:47:50;;;;;;;3.00;0.80;;;;;;;21.69;33.96;101929.47;16137653;19;130470;-42
2022/05/13 17:53:19;;;;;;;6.80;1.05;;;;;;;21.69;34.00;101937.00;16138839;19;129160;-43
2022/05/13 17:58:45;;;;;;;6.65;0.95;;;;;;;21.66;34.11;101932.78;16136425;19;130750;-43
2022/05/13 18:04:07;;;;;;;4.00;0.80;;;;;;;21.63;34.40;101934.09;16140556;19;129399;-42
2022/05/13 18:09:29;;;;;;;2.05;0.80;;;;;;;21.61;34.10;101941.00;16136286;19;129490;-41
2022/05/13 18:14:51;;;;;;;4.50;1.02;;;;;;;21.59;34.17;101944.03;16140274;19;129633;-41
2022/05/13 18:20:13;;;;;;;3.00;0.80;;;;;;;21.58;34.12;101938.69;16136497;19;129674;-40
2022/05/13 18:25:38;;;;;;;3.78;0.82;;;;;;;21.56;34.15;101938.06;16134880;19;129534;-45
2022/05/13 18:31:03;;;;;;;2.55;0.80;;;;;;;21.54;34.18;101945.84;16132373;19;128867;-41
2022/05/13 18:36:26;;;;;;;4.03;1.02;;;;;;;21.51;34.14;101942.44;16132945;19;129674;-44
2022/05/13 18:47:27;;;;;;;2.40;0.70;;;;;;;21.49;34.14;101946.53;16134678;19;129425;-45
2022/05/13 18:52:50;;;;;;;1.05;0.50;;;;;;;21.48;34.12;101950.38;16136529;19;128930;-44
2022/05/13 18:58:11;;;;;;;1.08;0.50;;;;;;;21.45;34.09;101954.50;16136763;19;130248;-44
2022/05/13 19:03:35;;;;;;;2.38;0.80;;;;;;;21.44;34.11;101958.38;16135402;19;129387;-40
2022/05/13 19:08:57;;;;;;;4.30;1.05;;;;;;;21.42;34.16;101954.97;16132006;19;130077;-40
2022/05/13 19:14:20;;;;;;;2.25;0.63;;;;;;;21.42;34.58;101962.50;16146033;19;130744;-40
2022/05/13 19:19:41;;;;;;;2.88;0.70;;;;;;;21.40;34.34;101968.31;16146092;19;129448;-43
2022/05/13 19:25:07;;;;;;;20.15;2.05;;;;;;;21.39;34.46;101977.75;16146825;19;129386;-43
2022/05/13 19:30:29;;;;;;;4.43;1.00;;;;;;;21.40;34.55;101990.59;16141632;19;129999;-44
2022/05/13 19:35:51;;;;;;;8.68;1.15;;;;;;;21.39;34.48;101988.88;16148581;19;129110;-42
2022/05/13 19:41:14;;;;;;;6.22;0.80;;;;;;;21.39;34.57;101983.31;16148845;19;129415;-41
2022/05/13 19:46:37;;;;;;;8.27;0.68;;;;;;;21.39;34.68;101991.66;16147269;19;129517;-42
2022/05/13 19:51:59;;;;;;;5.00;0.98;;;;;;;21.37;34.67;101994.69;16142924;19;129641;-41
2022/05/13 19:57:21;;;;;;;4.93;0.80;;;;;;;21.37;34.44;101997.47;16147317;19;129818;-42
2022/05/13 20:02:43;;;;;;;3.95;0.50;;;;;;;21.36;34.72;102000.50;16148260;19;129323;-42
2022/05/13 20:13:48;;;;;;;5.85;0.75;;;;;;;21.34;34.97;102006.31;16141877;19;129547;-47
2022/05/13 20:19:10;;;;;;;4.10;0.60;;;;;;;21.30;35.24;102012.56;16135082;19;130283;-42
2022/05/13 20:24:32;;;;;;;2.00;0.70;;;;;;;21.27;35.04;102007.50;16140692;19;130332;-49
2022/05/13 20:29:54;;;;;;;2.28;0.75;;;;;;;21.25;35.41;102016.06;16137703;19;129117;-42
2022/05/13 20:35:16;;;;;;;3.53;0.98;;;;;;;21.25;35.36;102015.22;16141063;19;130818;-45
2022/05/13 20:40:39;;;;;;;2.88;0.63;;;;;;;21.26;35.07;102012.19;16141055;19;129718;-43
2022/05/13 20:46:01;;;;;;;2.95;0.60;;;;;;;21.27;34.93;102018.63;16139043;19;129110;-46
2022/05/13 20:51:24;;;;;;;1.60;0.50;;;;;;;21.27;35.22;102019.47;16135829;19;129613;-46
2022/05/13 20:56:46;;;;;;;14.35;1.40;;;;;;;21.29;34.89;102022.03;16136248;19;130267;-46
2022/05/13 21:02:08;;;;;;;15.88;1.33;;;;;;;21.32;34.89;102027.09;16137406;19;130091;-45
2022/05/13 21:07:35;;;;;;;11.27;1.40;;;;;;;21.33;34.84;102034.34;16142537;19;129670;-44
2022/05/13 21:12:56;;;;;;;8.88;1.48;;;;;;;21.34;34.89;102031.38;16135321;19;129575;-47
2022/05/13 21:18:18;;;;;;;7.43;1.23;;;;;;;21.36;35.36;102036.69;16137027;19;129462;-43
2022/05/13 21:23:41;;;;;;;4.45;1.10;;;;;;;21.34;35.18;102036.94;16142162;19;130798;-51
2022/05/13 21:29:03;;;;;;;8.00;1.05;;;;;;;21.33;34.90;102037.16;16139599;19;129492;-45
2022/05/13 21:40:06;;;;;;;9.13;0.95;;;;;;;21.30;35.06;102040.41;16140624;19;128957;-45
2022/05/13 21:45:28;;;;;;;15.73;1.52;;;;;;;21.30;35.05;102038.47;16140384;19;129519;-49
2022/05/13 21:50:50;;;;;;;10.82;1.05;;;;;;;21.31;34.81;102042.09;16135016;19;129761;-46
2022/05/13 21:56:11;;;;;;;3.92;0.52;;;;;;;21.31;34.98;102045.75;16139720;19;129384;-47
2022/05/13 22:01:34;;;;;;;10.55;1.10;;;;;;;21.31;34.96;102050.44;16141749;19;130577;-45
2022/05/13 22:06:56;;;;;;;5.90;1.00;;;;;;;21.31;35.11;102044.88;16136354;19;130119;-43
2022/05/13 22:12:18;;;;;;;7.15;1.13;;;;;;;21.30;35.35;102045.97;16135881;19;129954;-45
2022/05/13 22:17:40;;;;;;;6.03;0.68;;;;;;;21.29;34.83;102044.28;16136156;19;129685;-43
2022/05/13 22:23:03;;;;;;;6.82;1.30;;;;;;;21.31;35.14;102047.66;16136975;19;129448;-43
2022/05/13 22:28:25;;;;;;;8.43;1.40;;;;;;;21.29;35.29;102053.47;16136341;19;129308;-44
2022/05/13 22:33:47;;;;;;;10.65;1.30;;;;;;;21.27;35.50;102046.47;16137755;19;129493;-46
2022/05/13 22:39:11;;;;;;;7.05;1.20;;;;;;;21.25;35.09;102043.06;16134168;19;131204;-50
2022/05/13 22:44:33;;;;;;;5.82;1.30;;;;;;;21.21;35.62;102037.13;16135879;19;129688;-50
2022/05/13 22:49:54;;;;;;;5.35;0.85;;;;;;;21.17;35.44;102036.72;16147984;19;130156;-49
2022/05/13 22:55:16;;;;;;;5.00;0.80;;;;;;;21.16;35.47;102036.97;16150119;19;129381;-45
2022/05/13 23:00:39;;;;;;;6.00;0.98;;;;;;;21.14;35.36;102030.78;16149688;19;129390;-45
2022/05/13 23:11:42;;;;;;;3.95;0.80;;;;;;;21.08;35.66;102031.75;16134784;19;130259;-45
2022/05/13 23:17:04;;;;;;;4.32;0.93;;;;;;;21.07;35.46;102030.88;16131436;19;129890;-47
2022/05/13 23:22:26;;;;;;;2.05;0.50;;;;;;;21.06;35.55;102041.19;16135090;19;129759;-45
2022/05/13 23:27:48;;;;;;;2.03;0.50;;;;;;;21.04;35.72;102040.56;16144496;19;129315;-50
2022/05/13 23:33:13;;;;;;;5.20;0.80;;;;;;;21.03;35.74;102046.38;16146298;19;130714;-44
2022/05/13 23:38:36;;;;;;;2.93;0.57;;;;;;;21.02;35.57;102042.72;16149596;19;130108;-50
2022/05/13 23:43:58;;;;;;;1.20;0.60;;;;;;;21.00;35.27;102042.09;16149204;19;129655;-43
2022/05/13 23:49:20;;;;;;;3.08;0.60;;;;;;;20.99;35.59;102040.41;16149260;19;129221;-43
